createdAt,value
2022-09-18T00:00:05.525Z,19.36
2022-09-18T00:02:31.920Z,19.68
2022-09-18T00:04:58.204Z,19.95
2022-09-18T00:07:24.536Z,20.02
2022-09-18T00:09:50.890Z,20.02
2022-09-18T00:12:17.226Z,19.77
2022-09-18T00:14:43.568Z,19.40
2022-09-18T00:17:09.900Z,19.04
2022-09-18T00:19:36.219Z,18.71
2022-09-18T00:22:02.575Z,18.41
2022-09-18T00:24:28.916Z,18.15
2022-09-18T00:26:55.255Z,17.92
2022-09-18T00:29:21.592Z,17.70
2022-09-18T00:31:47.961Z,17.56
2022-09-18T00:34:14.251Z,17.53
2022-09-18T00:36:40.584Z,17.36
2022-09-18T00:39:06.923Z,17.24
2022-09-18T00:41:33.280Z,17.10
2022-09-18T00:43:59.627Z,17.00
2022-09-18T00:46:25.997Z,16.87
2022-09-18T00:48:52.294Z,16.80
2022-09-18T00:51:18.630Z,16.71
2022-09-18T00:53:44.975Z,16.66
2022-09-18T00:56:11.291Z,16.57
2022-09-18T00:58:37.693Z,16.41
2022-09-18T01:01:04.056Z,16.31
2022-09-18T01:03:30.308Z,16.10
2022-09-18T01:05:56.664Z,15.97
2022-09-18T01:08:22.976Z,15.84
2022-09-18T01:10:49.315Z,15.77
2022-09-18T01:13:15.658Z,15.57
2022-09-18T01:15:42.058Z,15.37
2022-09-18T01:18:08.326Z,15.25
2022-09-18T01:20:34.666Z,15.00
2022-09-18T01:23:00.975Z,14.57
2022-09-18T01:25:27.320Z,14.00
2022-09-18T01:27:53.632Z,13.43
2022-09-18T01:30:19.958Z,13.27
2022-09-18T01:32:46.298Z,13.28
2022-09-18T01:35:30.146Z,13.20
2022-09-18T01:37:38.951Z,13.11
2022-09-18T01:40:05.320Z,12.94
2022-09-18T01:42:31.608Z,12.98
2022-09-18T01:44:57.954Z,13.00
2022-09-18T01:47:24.309Z,13.07
2022-09-18T01:49:50.629Z,12.92
2022-09-18T01:52:17.006Z,13.04
2022-09-18T01:54:43.365Z,13.06
2022-09-18T01:57:09.681Z,13.11
2022-09-18T01:59:36.002Z,13.07
2022-09-18T02:02:02.513Z,12.92
2022-09-18T02:04:28.678Z,12.78
2022-09-18T02:06:55.014Z,12.74
2022-09-18T02:09:21.333Z,12.78
2022-09-18T02:11:47.672Z,12.72
2022-09-18T02:14:14.015Z,12.66
2022-09-18T02:16:40.325Z,12.76
2022-09-18T02:19:06.802Z,12.94
2022-09-18T02:21:33.116Z,12.93
2022-09-18T02:23:59.510Z,12.95
2022-09-18T02:26:25.796Z,13.02
2022-09-18T02:28:52.133Z,13.09
2022-09-18T02:31:18.502Z,13.09
2022-09-18T02:33:44.792Z,13.22
2022-09-18T02:36:11.126Z,13.03
2022-09-18T02:38:37.469Z,13.15
2022-09-18T02:41:03.800Z,13.08
2022-09-18T02:43:30.176Z,13.07
2022-09-18T02:45:56.507Z,13.08
2022-09-18T02:48:22.824Z,13.04
2022-09-18T02:50:49.164Z,13.04
2022-09-18T02:53:15.540Z,13.04
2022-09-18T02:55:41.851Z,13.11
2022-09-18T02:58:08.171Z,13.03
2022-09-18T03:00:34.505Z,13.06
2022-09-18T03:03:00.877Z,13.06
2022-09-18T03:05:27.157Z,12.93
2022-09-18T03:07:53.520Z,12.89
2022-09-18T03:10:19.832Z,12.87
2022-09-18T03:12:46.176Z,12.84
2022-09-18T03:15:12.512Z,12.81
2022-09-18T03:17:38.852Z,12.78
2022-09-18T03:20:05.182Z,12.82
2022-09-18T03:22:31.541Z,12.83
2022-09-18T03:24:57.874Z,12.76
2022-09-18T03:27:24.193Z,12.79
2022-09-18T03:29:50.549Z,12.87
2022-09-18T03:32:16.863Z,12.86
2022-09-18T03:34:43.178Z,12.86
2022-09-18T03:37:09.558Z,12.84
2022-09-18T03:39:35.890Z,12.91
2022-09-18T03:42:02.207Z,12.93
2022-09-18T03:44:28.525Z,12.85
2022-09-18T03:46:54.901Z,12.78
2022-09-18T03:49:21.172Z,12.69
2022-09-18T03:51:47.515Z,12.68
2022-09-18T03:54:13.830Z,12.65
2022-09-18T03:56:40.149Z,12.64
2022-09-18T03:59:06.499Z,12.68
2022-09-18T04:01:32.885Z,12.65
2022-09-18T04:03:59.171Z,12.64
2022-09-18T04:06:25.491Z,12.65
2022-09-18T04:08:51.834Z,12.53
2022-09-18T04:11:18.148Z,12.47
2022-09-18T04:13:44.505Z,12.43
2022-09-18T04:16:10.873Z,12.52
2022-09-18T04:18:37.184Z,12.63
2022-09-18T04:21:03.524Z,12.59
2022-09-18T04:23:29.858Z,12.56
2022-09-18T04:25:56.182Z,12.68
2022-09-18T04:28:22.518Z,12.71
2022-09-18T04:30:48.879Z,12.72
2022-09-18T04:33:16.075Z,12.66
2022-09-18T04:35:41.553Z,12.70
2022-09-18T04:38:07.891Z,12.73
2022-09-18T04:40:34.317Z,12.48
2022-09-18T04:43:00.601Z,12.39
2022-09-18T04:45:26.938Z,12.41
2022-09-18T04:47:53.266Z,12.38
2022-09-18T04:50:19.583Z,12.42
2022-09-18T04:52:45.967Z,12.40
2022-09-18T04:55:12.310Z,12.35
2022-09-18T04:57:38.638Z,12.23
2022-09-18T05:00:04.959Z,12.29
2022-09-18T05:02:31.333Z,12.26
2022-09-18T05:04:57.672Z,12.22
2022-09-18T05:07:23.982Z,12.22
2022-09-18T05:09:50.351Z,12.24
2022-09-18T05:12:16.664Z,12.38
2022-09-18T05:14:42.987Z,12.31
2022-09-18T05:17:09.376Z,12.40
2022-09-18T05:19:35.709Z,12.40
2022-09-18T05:22:02.022Z,12.43
2022-09-18T05:24:28.386Z,12.33
2022-09-18T05:26:54.714Z,12.38
2022-09-18T05:29:21.036Z,12.43
2022-09-18T05:31:47.432Z,12.49
2022-09-18T05:34:13.717Z,12.54
2022-09-18T05:36:40.026Z,12.58
2022-09-18T05:39:06.351Z,12.48
2022-09-18T05:41:32.690Z,12.56
2022-09-18T05:43:59.027Z,12.57
2022-09-18T05:46:25.377Z,12.60
2022-09-18T05:48:51.888Z,12.57
2022-09-18T05:51:18.220Z,12.60
2022-09-18T05:53:44.538Z,12.64
2022-09-18T05:56:10.891Z,12.62
2022-09-18T05:58:37.209Z,12.60
2022-09-18T06:01:03.526Z,12.63
2022-09-18T06:03:29.892Z,12.65
2022-09-18T06:05:56.221Z,12.60
2022-09-18T06:08:22.542Z,12.58
2022-09-18T06:10:48.907Z,12.64
2022-09-18T06:13:15.224Z,12.70
2022-09-18T06:15:41.562Z,12.67
2022-09-18T06:18:07.908Z,12.75
2022-09-18T06:20:34.249Z,12.82
2022-09-18T06:23:00.581Z,12.86
2022-09-18T06:25:26.899Z,12.96
2022-09-18T06:27:53.241Z,12.99
2022-09-18T06:30:19.557Z,12.91
2022-09-18T06:32:45.900Z,13.00
2022-09-18T06:35:12.234Z,13.01
2022-09-18T06:37:38.578Z,13.09
2022-09-18T06:40:05.100Z,13.10
2022-09-18T06:42:31.226Z,13.22
2022-09-18T06:44:57.585Z,13.21
2022-09-18T06:47:23.925Z,13.17
2022-09-18T06:49:50.240Z,13.18
2022-09-18T06:52:16.566Z,13.23
2022-09-18T06:54:42.885Z,13.32
2022-09-18T06:57:09.206Z,13.34
2022-09-18T06:59:35.518Z,13.29
2022-09-18T07:02:01.966Z,13.43
2022-09-18T07:04:28.195Z,13.51
2022-09-18T07:06:54.534Z,13.54
2022-09-18T07:09:20.850Z,13.72
2022-09-18T07:11:47.189Z,13.89
2022-09-18T07:14:13.525Z,14.20
2022-09-18T07:16:39.892Z,14.49
2022-09-18T07:19:06.212Z,14.56
2022-09-18T07:21:32.553Z,14.52
2022-09-18T07:23:58.888Z,14.71
2022-09-18T07:26:25.224Z,14.91
2022-09-18T07:28:51.561Z,15.49
2022-09-18T07:31:17.926Z,15.73
2022-09-18T07:33:44.199Z,15.63
2022-09-18T07:36:10.521Z,15.55
2022-09-18T07:38:36.838Z,15.62
2022-09-18T07:41:03.174Z,15.45
2022-09-18T07:43:29.493Z,15.46
2022-09-18T07:45:55.834Z,15.41
2022-09-18T07:48:22.173Z,15.36
2022-09-18T07:50:48.491Z,15.25
2022-09-18T07:53:14.863Z,15.27
2022-09-18T07:55:41.181Z,15.60
2022-09-18T07:58:07.515Z,15.71
2022-09-18T08:00:33.855Z,15.86
2022-09-18T08:03:00.294Z,15.84
2022-09-18T08:05:26.561Z,15.74
2022-09-18T08:07:52.873Z,16.14
2022-09-18T08:10:19.191Z,17.04
2022-09-18T08:12:45.531Z,17.84
2022-09-18T08:15:11.875Z,18.52
2022-09-18T08:17:38.210Z,18.68
2022-09-18T08:20:04.624Z,18.58
2022-09-18T08:22:30.940Z,18.13
2022-09-18T08:24:57.288Z,17.82
2022-09-18T08:27:23.796Z,18.05
2022-09-18T08:29:50.115Z,18.49
2022-09-18T08:32:16.452Z,18.53
2022-09-18T08:34:42.835Z,19.03
2022-09-18T08:37:09.170Z,18.82
2022-09-18T08:39:35.488Z,18.40
2022-09-18T08:42:01.829Z,18.60
2022-09-18T08:44:28.169Z,17.90
2022-09-18T08:46:54.589Z,17.46
2022-09-18T08:49:20.843Z,18.03
2022-09-18T08:51:47.161Z,19.47
2022-09-18T08:54:13.484Z,19.90
2022-09-18T08:56:39.823Z,19.91
2022-09-18T08:59:06.140Z,19.97
2022-09-18T09:01:32.500Z,19.77
2022-09-18T09:03:58.820Z,19.69
2022-09-18T09:06:25.158Z,19.57
2022-09-18T09:08:51.515Z,19.46
2022-09-18T09:11:17.833Z,19.30
2022-09-18T09:13:44.154Z,19.53
2022-09-18T09:16:10.574Z,20.54
2022-09-18T09:18:36.837Z,20.58
2022-09-18T09:21:03.154Z,20.82
2022-09-18T09:23:29.547Z,19.34
2022-09-18T09:25:55.879Z,18.11
2022-09-18T09:28:22.205Z,17.40
2022-09-18T09:30:48.530Z,16.94
2022-09-18T09:33:14.871Z,16.95
2022-09-18T09:35:41.237Z,17.08
2022-09-18T09:38:07.582Z,16.68
2022-09-18T09:40:33.949Z,16.61
2022-09-18T09:43:00.249Z,17.39
2022-09-18T09:45:26.568Z,17.61
2022-09-18T09:47:52.887Z,17.27
2022-09-18T09:50:19.282Z,17.05
2022-09-18T09:52:45.581Z,16.84
2022-09-18T09:55:11.918Z,17.18
2022-09-18T09:57:38.272Z,17.61
2022-09-18T10:00:04.588Z,18.59
2022-09-18T10:02:31.007Z,17.93
2022-09-18T10:04:57.258Z,17.57
2022-09-18T10:07:23.579Z,17.08
2022-09-18T10:09:49.918Z,16.67
2022-09-18T10:12:16.275Z,16.73
2022-09-18T10:14:42.598Z,16.85
2022-09-18T10:17:08.967Z,16.65
2022-09-18T10:19:35.278Z,16.41
2022-09-18T10:22:01.604Z,16.40
2022-09-18T10:24:27.996Z,16.49
2022-09-18T10:26:54.337Z,16.33
2022-09-18T10:29:20.666Z,16.24
2022-09-18T10:31:47.064Z,16.33
2022-09-18T10:34:13.348Z,16.45
2022-09-18T10:36:39.704Z,16.97
2022-09-18T10:39:06.080Z,19.02
2022-09-18T10:41:32.394Z,19.88
2022-09-18T10:43:58.711Z,19.21
2022-09-18T10:46:25.101Z,18.71
2022-09-18T10:48:51.370Z,19.61
2022-09-18T10:51:17.749Z,19.46
2022-09-18T10:53:44.080Z,18.93
2022-09-18T10:56:10.403Z,18.19
2022-09-18T10:58:36.757Z,18.24
2022-09-18T11:01:03.265Z,18.12
2022-09-18T11:03:29.436Z,18.24
2022-09-18T11:05:55.831Z,18.69
2022-09-18T11:08:22.176Z,19.33
2022-09-18T11:10:48.514Z,19.45
2022-09-18T11:13:14.856Z,19.57
2022-09-18T11:15:41.164Z,19.50
2022-09-18T11:18:07.500Z,19.40
2022-09-18T11:20:33.861Z,19.72
2022-09-18T11:23:00.302Z,19.68
2022-09-18T11:25:26.662Z,19.58
2022-09-18T11:27:52.956Z,19.55
2022-09-18T11:30:19.273Z,20.13
2022-09-18T11:32:45.617Z,19.66
2022-09-18T11:35:11.956Z,20.07
2022-09-18T11:37:38.296Z,20.35
2022-09-18T11:40:04.660Z,20.35
2022-09-18T11:42:30.959Z,19.70
2022-09-18T11:44:57.271Z,19.31
2022-09-18T11:47:23.660Z,19.08
2022-09-18T11:49:49.991Z,18.98
2022-09-18T11:52:16.334Z,18.88
2022-09-18T11:54:42.651Z,19.16
2022-09-18T11:57:08.995Z,19.24
2022-09-18T11:59:35.326Z,18.63
2022-09-18T12:02:01.707Z,18.56
2022-09-18T12:04:28.037Z,19.03
2022-09-18T12:06:54.356Z,19.38
2022-09-18T12:09:19.317Z,19.79
2022-09-18T12:11:45.687Z,19.64
2022-09-18T12:14:12.001Z,19.26
2022-09-18T12:16:38.390Z,19.39
2022-09-18T12:19:04.671Z,19.58
2022-09-18T12:21:30.987Z,20.09
2022-09-18T12:23:57.335Z,19.22
2022-09-18T12:26:23.659Z,18.66
2022-09-18T12:28:49.988Z,18.87
2022-09-18T12:31:16.343Z,19.30
2022-09-18T12:33:42.680Z,19.78
2022-09-18T12:36:09.024Z,19.94
2022-09-18T12:38:35.357Z,19.89
2022-09-18T12:41:02.367Z,19.66
2022-09-18T12:43:28.701Z,19.82
2022-09-18T12:45:55.077Z,20.07
2022-09-18T12:48:21.389Z,19.57
2022-09-18T12:50:47.704Z,19.08
2022-09-18T12:53:14.018Z,18.49
2022-09-18T12:55:40.400Z,18.26
2022-09-18T12:58:06.740Z,18.39
2022-09-18T13:00:33.105Z,18.10
2022-09-18T13:02:59.464Z,18.13
2022-09-18T13:05:25.717Z,17.86
2022-09-18T13:07:52.034Z,17.75
2022-09-18T13:10:18.382Z,17.93
2022-09-18T13:12:44.716Z,17.89
2022-09-18T13:15:11.051Z,17.85
2022-09-18T13:17:38.133Z,17.45
2022-09-18T13:20:04.455Z,17.30
2022-09-18T13:22:30.791Z,17.29
2022-09-18T13:24:57.167Z,17.20
2022-09-18T13:27:23.476Z,17.29
2022-09-18T13:29:49.796Z,17.34
2022-09-18T13:32:16.144Z,17.43
2022-09-18T13:34:42.465Z,17.47
2022-09-18T13:37:08.809Z,17.33
2022-09-18T13:39:55.331Z,17.40
2022-09-18T13:42:01.459Z,17.83
2022-09-18T13:44:27.799Z,17.60
2022-09-18T13:46:54.133Z,17.42
2022-09-18T13:49:20.489Z,17.43
2022-09-18T13:51:46.798Z,17.49
2022-09-18T13:54:13.117Z,17.54
2022-09-18T13:56:39.527Z,17.67
2022-09-18T13:59:05.844Z,17.44
2022-09-18T14:01:32.198Z,17.43
2022-09-18T14:03:58.511Z,17.40
2022-09-18T14:06:24.844Z,17.27
2022-09-18T14:08:51.231Z,17.33
2022-09-18T14:11:17.703Z,17.38
2022-09-18T14:13:43.873Z,17.49
2022-09-18T14:16:10.208Z,17.56
2022-09-18T14:18:36.509Z,17.73
2022-09-18T14:21:02.824Z,17.81
2022-09-18T14:23:29.186Z,17.79
2022-09-18T14:25:55.503Z,17.59
2022-09-18T14:28:21.847Z,17.54
2022-09-18T14:30:48.163Z,17.50
2022-09-18T14:33:14.513Z,17.50
2022-09-18T14:35:40.846Z,17.53
2022-09-18T14:38:07.188Z,17.33
2022-09-18T14:40:33.598Z,17.11
2022-09-18T14:42:59.870Z,17.20
2022-09-18T14:45:26.233Z,17.31
2022-09-18T14:47:52.557Z,17.28
2022-09-18T14:50:18.890Z,17.05
2022-09-18T14:52:45.207Z,16.89
2022-09-18T14:55:11.566Z,16.96
2022-09-18T14:57:37.912Z,17.07
2022-09-18T15:00:04.256Z,17.17
2022-09-18T15:02:30.595Z,17.23
2022-09-18T15:04:56.970Z,17.19
2022-09-18T15:07:23.290Z,17.21
2022-09-18T15:09:49.607Z,17.05
2022-09-18T15:12:15.967Z,16.97
2022-09-18T15:14:47.316Z,16.93
2022-09-18T15:17:08.625Z,16.86
2022-09-18T15:19:34.956Z,16.87
2022-09-18T15:22:01.283Z,16.87
2022-09-18T15:24:27.603Z,16.87
2022-09-18T15:26:56.285Z,16.86
2022-09-18T15:29:20.270Z,16.79
2022-09-18T15:31:46.670Z,16.76
2022-09-18T15:34:12.981Z,16.73
2022-09-18T15:36:39.302Z,16.69
2022-09-18T15:39:05.681Z,16.67
2022-09-18T15:41:32.019Z,16.70
2022-09-18T15:43:58.341Z,16.72
2022-09-18T15:46:24.739Z,16.71
2022-09-18T15:48:51.031Z,16.63
2022-09-18T15:51:17.376Z,16.54
2022-09-18T15:53:43.695Z,16.52
2022-09-18T15:56:10.016Z,16.55
2022-09-18T15:58:36.364Z,16.53
2022-09-18T16:01:02.818Z,16.48
2022-09-18T16:03:29.072Z,16.50
2022-09-18T16:05:55.391Z,16.48
2022-09-18T16:08:21.750Z,16.40
2022-09-18T16:10:48.096Z,16.38
2022-09-18T16:13:14.411Z,16.35
2022-09-18T16:15:40.768Z,16.31
2022-09-18T16:18:07.107Z,16.28
2022-09-18T16:20:33.456Z,16.18
2022-09-18T16:22:59.822Z,16.10
2022-09-18T16:25:26.161Z,16.17
2022-09-18T16:27:52.477Z,16.17
2022-09-18T16:30:18.865Z,16.09
2022-09-18T16:32:45.178Z,16.03
2022-09-18T16:35:11.499Z,15.91
2022-09-18T16:37:37.862Z,15.83
2022-09-18T16:40:04.298Z,15.75
2022-09-18T16:42:30.523Z,15.72
2022-09-18T16:44:56.851Z,15.65
2022-09-18T16:47:23.193Z,15.58
2022-09-18T16:49:49.573Z,15.58
2022-09-18T16:52:15.896Z,15.61
2022-09-18T16:54:42.218Z,15.53
2022-09-18T16:57:08.555Z,15.50
2022-09-18T16:59:34.878Z,15.48
2022-09-18T17:02:05.123Z,15.44
2022-09-18T17:04:27.557Z,15.32
2022-09-18T17:06:53.870Z,15.22
2022-09-18T17:09:20.205Z,15.16
2022-09-18T17:11:46.519Z,15.20
2022-09-18T17:14:12.885Z,15.13
2022-09-18T17:16:44.633Z,15.11
2022-09-18T17:19:05.533Z,15.10
2022-09-18T17:21:31.852Z,15.14
2022-09-18T17:23:58.182Z,15.14
2022-09-18T17:26:24.548Z,15.07
2022-09-18T17:28:50.889Z,15.01
2022-09-18T17:31:17.282Z,15.03
2022-09-18T17:33:43.577Z,15.03
2022-09-18T17:36:09.895Z,15.05
2022-09-18T17:38:36.229Z,15.02
2022-09-18T17:41:02.587Z,14.98
2022-09-18T17:43:28.928Z,14.94
2022-09-18T17:45:55.245Z,14.88
2022-09-18T17:48:21.573Z,14.84
2022-09-18T17:50:47.894Z,14.83
2022-09-18T17:53:14.239Z,14.77
2022-09-18T17:55:40.605Z,14.69
2022-09-18T17:58:06.945Z,14.70
2022-09-18T18:00:33.305Z,14.67
2022-09-18T18:02:59.669Z,14.67
2022-09-18T18:05:26.000Z,14.64
2022-09-18T18:07:52.338Z,14.69
2022-09-18T18:10:18.714Z,14.66
2022-09-18T18:12:45.032Z,14.62
2022-09-18T18:15:11.351Z,14.57
2022-09-18T18:17:37.674Z,14.58
2022-09-18T18:20:03.989Z,14.53
2022-09-18T18:22:30.333Z,14.49
2022-09-18T18:24:56.673Z,14.43
2022-09-18T18:27:22.994Z,14.48
2022-09-18T18:29:49.373Z,14.45
2022-09-18T18:32:15.719Z,14.40
2022-09-18T18:34:42.055Z,14.38
2022-09-18T18:37:08.380Z,14.33
2022-09-18T18:39:34.717Z,14.35
2022-09-18T18:42:01.040Z,14.29
2022-09-18T18:44:27.643Z,14.21
2022-09-18T18:46:54.006Z,14.19
2022-09-18T18:49:20.299Z,14.19
2022-09-18T18:51:46.662Z,14.19
2022-09-18T18:54:12.999Z,14.18
2022-09-18T18:56:39.318Z,14.18
2022-09-18T18:59:05.660Z,14.15
2022-09-18T19:01:32.250Z,14.13
2022-09-18T19:03:58.311Z,14.09
2022-09-18T19:06:24.653Z,14.03
2022-09-18T19:08:50.986Z,14.07
2022-09-18T19:11:17.330Z,14.06
2022-09-18T19:13:43.650Z,13.97
2022-09-18T19:16:10.023Z,13.85
2022-09-18T19:18:36.321Z,13.83
2022-09-18T19:21:02.637Z,13.76
2022-09-18T19:23:28.996Z,13.71
2022-09-18T19:25:55.316Z,13.74
2022-09-18T19:28:21.628Z,13.72
2022-09-18T19:30:48.013Z,13.67
2022-09-18T19:33:14.325Z,13.62
2022-09-18T19:35:40.666Z,13.51
2022-09-18T19:38:06.982Z,13.14
2022-09-18T19:40:33.424Z,12.94
2022-09-18T19:42:59.642Z,12.81
2022-09-18T19:45:25.999Z,12.61
2022-09-18T19:47:52.314Z,12.48
2022-09-18T19:50:18.655Z,12.35
2022-09-18T19:52:46.755Z,12.14
2022-09-18T19:55:11.347Z,11.99
2022-09-18T19:57:37.684Z,11.86
2022-09-18T20:00:04.070Z,11.98
2022-09-18T20:02:30.405Z,11.95
2022-09-18T20:04:56.726Z,11.83
2022-09-18T20:07:23.067Z,11.85
2022-09-18T20:09:49.422Z,11.92
2022-09-18T20:12:15.740Z,12.04
2022-09-18T20:14:42.066Z,12.16
2022-09-18T20:17:08.409Z,12.14
2022-09-18T20:19:34.726Z,12.01
2022-09-18T20:22:01.070Z,11.90
2022-09-18T20:24:27.405Z,11.93
2022-09-18T20:26:53.750Z,11.94
2022-09-18T20:29:20.096Z,11.91
2022-09-18T20:31:46.466Z,11.92
2022-09-18T20:34:12.748Z,11.84
2022-09-18T20:36:39.068Z,11.73
2022-09-18T20:39:05.393Z,11.44
2022-09-18T20:41:31.716Z,11.13
2022-09-18T20:43:58.071Z,11.17
2022-09-18T20:46:24.445Z,11.30
2022-09-18T20:48:50.725Z,11.34
2022-09-18T20:51:17.104Z,11.34
2022-09-18T20:53:43.423Z,11.29
2022-09-18T20:56:09.740Z,11.28
2022-09-18T20:58:36.100Z,11.32
2022-09-18T21:01:02.475Z,11.22
2022-09-18T21:03:28.775Z,11.32
2022-09-18T21:06:12.702Z,11.47
2022-09-18T21:08:21.412Z,11.74
2022-09-18T21:10:47.731Z,11.85
2022-09-18T21:13:14.115Z,11.93
2022-09-18T21:15:40.450Z,11.81
2022-09-18T21:18:06.774Z,11.66
2022-09-18T21:20:33.114Z,11.61
2022-09-18T21:22:59.501Z,11.57
2022-09-18T21:25:25.836Z,11.51
2022-09-18T21:27:52.154Z,11.41
2022-09-18T21:30:18.473Z,11.38
2022-09-18T21:32:44.834Z,11.54
2022-09-18T21:35:11.212Z,11.64
2022-09-18T21:37:37.522Z,11.55
2022-09-18T21:40:03.924Z,11.44
2022-09-18T21:42:30.181Z,11.41
2022-09-18T21:44:56.497Z,11.58
2022-09-18T21:47:22.815Z,11.75
2022-09-18T21:49:49.176Z,11.91
2022-09-18T21:52:15.512Z,11.94
2022-09-18T21:54:41.835Z,11.79
2022-09-18T21:57:08.171Z,11.84
2022-09-18T21:59:34.507Z,11.90
2022-09-18T22:02:00.921Z,11.70
2022-09-18T22:04:27.202Z,11.53
2022-09-18T22:06:53.527Z,11.48
2022-09-18T22:09:19.838Z,11.21
2022-09-18T22:11:46.194Z,11.21
2022-09-18T22:14:12.519Z,11.32
2022-09-18T22:16:38.897Z,11.24
2022-09-18T22:19:05.309Z,11.08
2022-09-18T22:21:31.570Z,10.93
2022-09-18T22:23:57.911Z,10.96
2022-09-18T22:26:24.250Z,10.92
2022-09-18T22:28:50.661Z,10.93
2022-09-18T22:31:16.973Z,10.89
2022-09-18T22:33:43.233Z,10.77
2022-09-18T22:36:09.572Z,10.59
2022-09-18T22:38:35.930Z,10.59
2022-09-18T22:41:02.272Z,10.62
2022-09-18T22:43:28.592Z,10.51
2022-09-18T22:45:54.934Z,10.41
2022-09-18T22:48:21.271Z,10.41
2022-09-18T22:50:47.609Z,10.48
2022-09-18T22:53:13.931Z,10.35
2022-09-18T22:55:40.245Z,10.38
2022-09-18T22:58:06.593Z,10.42
2022-09-18T23:00:32.928Z,10.49
2022-09-18T23:02:59.268Z,10.53
2022-09-18T23:05:25.607Z,10.56
2022-09-18T23:07:51.965Z,10.51
2022-09-18T23:10:18.303Z,10.43
2022-09-18T23:12:44.620Z,10.48
2022-09-18T23:15:10.962Z,10.52
2022-09-18T23:17:37.278Z,10.56
2022-09-18T23:20:03.606Z,10.52
2022-09-18T23:22:29.937Z,10.40
2022-09-18T23:24:56.280Z,10.37
2022-09-18T23:27:22.615Z,10.61
2022-09-18T23:29:48.950Z,10.78
2022-09-18T23:32:15.266Z,10.74
2022-09-18T23:34:41.622Z,10.69
2022-09-18T23:37:07.943Z,10.60
2022-09-18T23:39:34.279Z,10.60
2022-09-18T23:42:00.639Z,10.58
2022-09-18T23:44:26.919Z,10.61
2022-09-18T23:46:53.319Z,10.70
2022-09-18T23:49:19.580Z,10.78
2022-09-18T23:51:45.901Z,10.77
2022-09-18T23:54:12.241Z,10.66
2022-09-18T23:56:38.577Z,10.50
2022-09-18T23:59:04.914Z,10.35
